Schedule Details

Flight Number: CPX791
Departure: Changi International Airport (WSSS) at N/A
Arrival: Kingsford Smith International Airport (YSSY) at N/A
Route: ANIT7B ANITO/M082F310 B470 PKP/N0496F310 L511 RUPKA/N0492F330 L511 TARUN T20 BRM/N0488F350 G222 AGAGO/N0483F370 G222 PKS H319 TARAL Y59 RIVET


Current Weather Information
WSSS 180630Z 05006KT 010V080 9999 FEW020 SCT170 30/23 Q1011 NOSIG
YSSY 180630Z 03025KT CAVOK 28/18 Q1004

Route Map